Aviation Digital Data Service (ADDS)

Output produced by METARs form (0359 UTC 18 December 2014)
found at http://www.aviationweather.gov/adds/metars/
 
SEGU 180300Z 22009KT 9999 SCT033 25/19 Q1014 NOSIG RMK A2994
SEGU 172235Z 1800/1824 20006KT 9999 FEW020 SCT100 
     FM180600 20006KT 9999 SCT020 BKN100 
     FM181200 04003KT 9999 SCT020 SCT100 
     FM181800 15004KT 9999 FEW020 SCT200 TX34/1820Z TN23/1810Z
       
SEMT 180300Z 19012KT 9999 SCT026 24/21 Q1014
SEMT 172235Z 1800/1824 18005KT 9999 OVC020 
     FM181600 30010KT 9999 SCT023 TX31/1820Z TN22/1810Z